Aérodrome :
LOGIN :

S'inscrire | Disclaimer

   EN    FR    IT 

 










Légende :    VFR   VFR Marginal   IFR   IFR Intensif   IFR Très Intensif
Visi : 
Plafond : 
>= 8 km
>= 3000ft
5 à 8 km
1000 à 3000 ft
1500m à 5 km
500 à 1000 ft
800 à 1500m
200 à 500 ft
< 800m
< 200 ft
Symboles :   Orages  Brouillard  Fortes neiges  Fortes précipitations  Vent > 20 kt
SIGMETs :   Divers  Orages  Givrage  Turbulence  Onde Orograph.  Cendres Volcan.







- Altitude de l'aérodrome : 160 ft
- Code IATA : FMO


EDDG - Münster Osnabrück Int.

DERNIER METAR :
  • 101950Z 27011KT 9999 FEW019 04/02 Q1020 NOSIG

METARs EXPIRÉS :
  • 101920Z 29012KT 260V330 9999 -SHRA SCT019TCU 04/02 Q1020 NOSIG
  • 101850Z 28010KT 250V310 9999 FEW020 04/02 Q1019 NOSIG
  • 101820Z 27014KT 9999 -SHRA FEW020CB BKN044 04/02 Q1019 NOSIG
  • 101750Z 28013KT 9999 FEW028 BKN044 04/01 Q1019 NOSIG
  • 101720Z 28011KT 9999 FEW020 SCT035 04/01 Q1019 NOSIG

TAF TAF EDDG
Valide du 10 à 18h jusqu'au 11 à 18h UTC


101700Z 1018/1118 27010KT 9999 SCT020 BKN030
PROB30
TEMPO 1018/1021 SHRA BKN014TCU
BECMG 1113/1116 31005KT
Pas de NOTAMs connus pour ce terrain.
1 SIGMET publié pour la FIR Langen (EDGG) :
 
Turbulence forte
EDGG SIGMET 3 VALID 102000/102330 EDZF
EDGG LANGEN FIR SEV TURB FCST APRX 50NM WID LINE BTN N5157 E00655 - N4755 E00906 FL180/240 MOV E NC=



MET'MAP, la Météo Aéronautique d'un coup d'oeil ! - Copyright ORBIFLY Décembre 2007 - Disclaimer

ORBIFLY MET'MAP TEAM :

Programmation & Développement : Alexandra Zaïnal
Conception & Développement : Baudouin d'Aumeries
Co-Programmation & Développement : Marc-Olivier Méhu
Soutien technique & logistique : Manuel Goepfert

Contact : metmap@orbifly.com




SOURCES & CREDITS :

   NOAA